^^
Meteo Knjazevac Station Historical Data
Daily Summary for August 2, 2021 Units:  Both    English   Metric
Daily Weekly Monthly Yearly Custom
  High: Low: Average:
Temperature: 43.3 °F /  6.3 °C 37.8 °F /  3.2 °C 40.5 °F /  4.7 °C
Dew Point: 40 °F /  4.4 °C 35.3 °F /  1.8 °C 37.3 °F /  2.9 °C
Humidity: 91% 86% 88%
Wind Speed: 3mph /  4.8km/h - 0.4mph /  0.6km/h
Wind Gust: 5mph /  8km/h - -
Wind- - WNW
Pressure: 30.32 in /  1026.6 hPa 30.30 in /  1026 hPa -
Precipitation: 0.00 in /  0 mm    
Historical Graphs
 
 
Tabular Data for August 2, 2021
Time Temperature Dew Point Pressure Wind Wind Speed Wind Gust Humidity Rainfall Rate (Hourly) solar Conditions
00:00 43.3 °F /  6.3 °C 39.4 °F /  4.1 °C 30.32in /  1026.6hPa Calm   3mph /  4.8km/h 86% 0.00in /  0mm 0 W/m2
00:10 43.3 °F /  6.3 °C 40 °F /  4.4 °C 30.32in /  1026.6hPa Calm   1mph /  1.6km/h 88% 0.00in /  0mm 0 W/m2
00:20 43.2 °F /  6.2 °C 39.3 °F /  4.1 °C 30.32in /  1026.6hPa Calm   1mph /  1.6km/h 86% 0.00in /  0mm 0 W/m2
00:30 42.8 °F /  6 °C 39.2 °F /  4 °C 30.32in /  1026.6hPa Calm   3mph /  4.8km/h 87% 0.00in /  0mm 0 W/m2
00:40 42.6 °F /  5.9 °C 39.3 °F /  4.1 °C 30.32in /  1026.6hPa Calm   2mph /  3.2km/h 88% 0.00in /  0mm 0 W/m2
00:50 42.4 °F /  5.8 °C 38.8 °F /  3.8 °C 30.32in /  1026.6hPa Calm   1mph /  1.6km/h 87% 0.00in /  0mm 0 W/m2
01:00 42.3 °F /  5.7 °C 39 °F /  3.9 °C 30.32in /  1026.6hPa Calm   2mph /  3.2km/h 88% 0.00in /  0mm 0 W/m2
01:10 42 °F /  5.6 °C 38.1 °F /  3.4 °C 30.31in /  1026.3hPa Calm   2mph /  3.2km/h 86% 0.00in /  0mm 0 W/m2
01:20 41.5 °F /  5.3 °C 37.7 °F /  3.2 °C 30.32in /  1026.6hPa Calm     86% 0.00in /  0mm 0 W/m2
01:30 41.4 °F /  5.2 °C 37.8 °F /  3.2 °C 30.31in /  1026.3hPa Calm   2mph /  3.2km/h 87% 0.00in /  0mm 0 W/m2
01:40 41.2 °F /  5.1 °C 38.2 °F /  3.4 °C 30.32in /  1026.6hPa SSE 1mph /  1.6km/h 3mph /  4.8km/h 89% 0.00in /  0mm 0 W/m2
01:50 41.1 °F /  5.1 °C 37.8 °F /  3.2 °C 30.31in /  1026.3hPa Calm   3mph /  4.8km/h 88% 0.00in /  0mm 0 W/m2
02:00 40.8 °F /  4.9 °C 37.5 °F /  3.1 °C 30.31in /  1026.3hPa Calm   2mph /  3.2km/h 88% 0.00in /  0mm 0 W/m2
02:10 40.5 °F /  4.7 °C 37.5 °F /  3.1 °C 30.31in /  1026.3hPa Calm   2mph /  3.2km/h 89% 0.00in /  0mm 0 W/m2
02:20 40.3 °F /  4.6 °C 37.3 °F /  2.9 °C 30.31in /  1026.3hPa NW 1mph /  1.6km/h 2mph /  3.2km/h 89% 0.00in /  0mm 0 W/m2
02:30 39.9 °F /  4.4 °C 36.7 °F /  2.6 °C 30.30in /  1026hPa WNW 1mph /  1.6km/h 2mph /  3.2km/h 88% 0.00in /  0mm 0 W/m2
02:40 39.4 °F /  4.1 °C 36.1 °F /  2.3 °C 30.30in /  1026hPa WNW 1mph /  1.6km/h 2mph /  3.2km/h 88% 0.00in /  0mm 0 W/m2
02:50 38.8 °F /  3.8 °C 35.6 °F /  2 °C 30.30in /  1026hPa WNW 1mph /  1.6km/h 2mph /  3.2km/h 88% 0.00in /  0mm 0 W/m2
03:00 38.6 °F /  3.7 °C 35.6 °F /  2 °C 30.30in /  1026hPa NW 1mph /  1.6km/h 2mph /  3.2km/h 89% 0.00in /  0mm 0 W/m2
03:10 38.3 °F /  3.5 °C 35.3 °F /  1.8 °C 30.30in /  1026hPa West 3mph /  4.8km/h 5mph /  8km/h 89% 0.00in /  0mm 0 W/m2
03:20 38.1 °F /  3.4 °C 35.4 °F /  1.9 °C 30.30in /  1026hPa West 1mph /  1.6km/h 4mph /  6.4km/h 90% 0.00in /  0mm 0 W/m2
03:30 37.9 °F /  3.3 °C 35.3 °F /  1.8 °C 30.30in /  1026hPa Calm   2mph /  3.2km/h 90% 0.00in /  0mm 0 W/m2
03:40 37.9 °F /  3.3 °C 35.5 °F /  1.9 °C 30.30in /  1026hPa Calm   2mph /  3.2km/h 91% 0.00in /  0mm 0 W/m2
03:50 37.9 °F /  3.3 °C 35.5 °F /  1.9 °C 30.30in /  1026hPa Calm   2mph /  3.2km/h 91% 0.00in /  0mm 0 W/m2
04:00 37.8 °F /  3.2 °C 35.4 °F /  1.9 °C 30.30in /  1026hPa NNW 1mph /  1.6km/h 2mph /  3.2km/h 91% 0.00in /  0mm 0 W/m2
Knjazevac, Serbia
Compliments of Weather Underground - 2 mb